createdAt,value
2022-10-28T00:01:34.813Z,93.20
2022-10-28T00:04:02.399Z,93.20
2022-10-28T00:06:34.433Z,93.30
2022-10-28T00:09:04.543Z,93.30
2022-10-28T00:11:34.732Z,93.40
2022-10-28T00:14:03.899Z,93.30
2022-10-28T00:16:32.728Z,93.40
2022-10-28T00:19:01.046Z,93.40
2022-10-28T00:21:32.710Z,93.50
2022-10-28T00:24:00.126Z,93.60
2022-10-28T00:26:29.501Z,93.50
2022-10-28T00:29:16.872Z,93.50
2022-10-28T00:31:44.496Z,93.50
2022-10-28T00:34:13.537Z,93.50
2022-10-28T00:36:41.980Z,93.50
2022-10-28T00:39:13.961Z,93.60
2022-10-28T00:41:42.752Z,93.60
2022-10-28T00:44:28.899Z,93.50
2022-10-28T00:46:56.437Z,93.50
2022-10-28T00:49:26.895Z,93.50
2022-10-28T00:51:56.946Z,93.60
2022-10-28T00:54:24.584Z,93.60
2022-10-28T00:56:53.567Z,93.60
2022-10-28T00:59:29.728Z,93.60
2022-10-28T01:01:57.371Z,93.70
2022-10-28T01:04:25.230Z,93.80
2022-10-28T01:06:52.835Z,93.80
2022-10-28T01:09:20.232Z,93.80
2022-10-28T01:12:06.269Z,93.90
2022-10-28T01:14:43.704Z,93.90
2022-10-28T01:17:14.230Z,93.90
2022-10-28T01:20:03.639Z,93.90
2022-10-28T01:22:36.688Z,94.00
2022-10-28T01:25:04.074Z,94.00
2022-10-28T01:27:50.278Z,93.90
2022-10-28T01:30:22.120Z,93.90
2022-10-28T01:32:52.990Z,93.80
2022-10-28T01:38:08.685Z,93.80
2022-10-28T01:40:44.638Z,93.80
2022-10-28T01:43:32.500Z,93.80
2022-10-28T01:46:02.275Z,93.80
2022-10-28T01:48:35.104Z,93.80
2022-10-28T01:51:09.367Z,93.80
2022-10-28T01:53:38.977Z,93.90
2022-10-28T01:56:09.742Z,93.80
2022-10-28T01:58:38.531Z,93.90
2022-10-28T02:01:07.939Z,93.90
2022-10-28T02:03:35.617Z,94.00
2022-10-28T02:06:04.948Z,94.00
2022-10-28T02:08:42.688Z,94.00
2022-10-28T02:11:27.008Z,94.00
2022-10-28T02:13:54.361Z,94.00
2022-10-28T02:16:31.041Z,94.00
2022-10-28T02:18:58.397Z,94.00
2022-10-28T02:21:48.560Z,94.00
2022-10-28T02:24:22.261Z,94.00
2022-10-28T02:26:54.932Z,94.00
2022-10-28T02:29:27.662Z,93.90
2022-10-28T02:31:57.546Z,94.00
2022-10-28T02:34:28.067Z,93.90
2022-10-28T02:36:58.167Z,93.80
2022-10-28T02:39:28.132Z,93.80
2022-10-28T02:41:57.564Z,93.90
2022-10-28T02:44:30.101Z,94.00
2022-10-28T02:47:00.038Z,94.00
2022-10-28T02:49:27.809Z,94.10
2022-10-28T02:51:57.507Z,94.10
2022-10-28T02:54:28.333Z,94.10
2022-10-28T02:56:59.166Z,94.10
2022-10-28T02:59:26.631Z,94.00
2022-10-28T03:01:54.058Z,93.90
2022-10-28T03:04:21.628Z,93.90
2022-10-28T03:06:48.987Z,93.80
2022-10-28T03:09:16.321Z,93.70
2022-10-28T03:11:43.697Z,93.70
2022-10-28T03:14:13.298Z,93.70
2022-10-28T03:16:42.829Z,93.70
2022-10-28T03:19:10.153Z,93.80
2022-10-28T03:21:37.513Z,93.80
2022-10-28T03:24:04.956Z,93.80
2022-10-28T03:26:32.313Z,93.70
2022-10-28T03:28:59.636Z,93.70
2022-10-28T03:31:27.033Z,93.60
2022-10-28T03:33:54.388Z,93.60
2022-10-28T03:36:21.741Z,93.70
2022-10-28T03:38:49.308Z,93.70
2022-10-28T03:41:16.674Z,93.60
2022-10-28T03:43:44.384Z,93.70
2022-10-28T03:46:11.717Z,93.60
2022-10-28T03:48:39.095Z,93.70
2022-10-28T03:51:06.736Z,93.60
2022-10-28T03:53:34.116Z,93.70
2022-10-28T03:56:02.223Z,93.70
2022-10-28T03:58:29.842Z,93.70
2022-10-28T04:00:57.517Z,93.80
2022-10-28T04:03:25.697Z,93.80
2022-10-28T04:05:53.866Z,93.80
2022-10-28T04:08:21.280Z,93.80
2022-10-28T04:10:48.886Z,93.90
2022-10-28T04:13:16.833Z,93.90
2022-10-28T04:15:44.249Z,93.90
2022-10-28T04:18:12.284Z,93.90
2022-10-28T04:20:39.784Z,93.80
2022-10-28T04:23:07.203Z,93.80
2022-10-28T04:25:34.603Z,93.80
2022-10-28T04:28:01.944Z,93.70
2022-10-28T04:30:29.316Z,93.60
2022-10-28T04:32:56.688Z,93.60
2022-10-28T04:35:24.071Z,93.50
2022-10-28T04:37:51.843Z,93.50
2022-10-28T04:40:19.456Z,93.40
2022-10-28T04:42:46.783Z,93.40
2022-10-28T04:45:15.695Z,93.30
2022-10-28T04:47:43.089Z,93.30
2022-10-28T04:50:10.413Z,93.20
2022-10-28T04:52:37.961Z,93.00
2022-10-28T04:55:05.531Z,92.90
2022-10-28T04:57:33.073Z,92.70
2022-10-28T05:00:00.448Z,92.60
2022-10-28T05:02:27.974Z,92.50
2022-10-28T05:04:55.370Z,92.40
2022-10-28T05:07:23.703Z,92.30
2022-10-28T05:09:51.105Z,92.20
2022-10-28T05:12:18.464Z,92.00
2022-10-28T05:14:47.206Z,92.00
2022-10-28T05:17:16.375Z,91.90
2022-10-28T05:19:45.300Z,91.80
2022-10-28T05:22:12.658Z,91.60
2022-10-28T05:24:39.978Z,91.50
2022-10-28T05:27:07.311Z,91.40
2022-10-28T05:29:34.694Z,91.30
2022-10-28T05:32:02.167Z,91.30
2022-10-28T05:34:29.684Z,91.30
2022-10-28T05:36:57.060Z,91.20
2022-10-28T05:39:24.412Z,91.10
2022-10-28T05:41:51.736Z,91.00
2022-10-28T05:44:19.058Z,90.80
2022-10-28T05:46:46.377Z,90.70
2022-10-28T05:49:13.696Z,90.50
2022-10-28T05:51:41.001Z,90.50
2022-10-28T05:54:08.429Z,90.50
2022-10-28T05:56:35.758Z,90.60
2022-10-28T05:59:03.219Z,90.60
2022-10-28T06:01:30.847Z,90.60
2022-10-28T06:03:58.255Z,90.60
2022-10-28T06:06:25.691Z,90.70
2022-10-28T06:08:53.309Z,90.80
2022-10-28T06:11:19.088Z,90.80
2022-10-28T06:13:47.036Z,90.90
2022-10-28T06:16:14.401Z,91.00
2022-10-28T06:18:41.795Z,91.00
2022-10-28T06:21:09.157Z,91.00
2022-10-28T06:23:36.596Z,91.10
2022-10-28T06:26:04.292Z,91.10
2022-10-28T06:28:31.696Z,91.10
2022-10-28T06:31:03.067Z,91.20
2022-10-28T06:33:31.706Z,91.30
2022-10-28T06:35:59.355Z,91.30
2022-10-28T06:38:27.323Z,91.30
2022-10-28T06:41:00.664Z,91.30
2022-10-28T06:43:28.080Z,91.30
2022-10-28T06:45:55.757Z,91.30
2022-10-28T06:48:24.832Z,91.30
2022-10-28T06:50:54.558Z,91.30
2022-10-28T06:53:22.068Z,91.20
2022-10-28T06:55:56.375Z,91.20
2022-10-28T06:58:24.356Z,91.10
2022-10-28T07:00:55.498Z,91.10
2022-10-28T07:03:22.938Z,90.90
2022-10-28T07:05:51.617Z,90.80
2022-10-28T07:08:19.093Z,91.00
2022-10-28T07:10:54.035Z,91.20
2022-10-28T07:13:21.564Z,91.70
2022-10-28T07:15:55.768Z,92.20
2022-10-28T07:18:24.156Z,92.60
2022-10-28T07:20:51.602Z,92.80
2022-10-28T07:23:19.448Z,92.90
2022-10-28T07:25:56.421Z,93.00
2022-10-28T07:28:25.208Z,93.00
2022-10-28T07:30:52.812Z,92.90
2022-10-28T07:33:20.248Z,92.90
2022-10-28T07:35:47.640Z,93.00
2022-10-28T07:38:15.036Z,93.10
2022-10-28T07:40:42.466Z,93.10
2022-10-28T07:43:09.849Z,93.00
2022-10-28T07:45:37.280Z,93.00
2022-10-28T07:48:05.272Z,92.90
2022-10-28T07:50:32.757Z,92.70
2022-10-28T07:53:00.383Z,92.60
2022-10-28T07:55:28.025Z,92.50
2022-10-28T07:57:55.689Z,92.40
2022-10-28T08:00:23.606Z,92.40
2022-10-28T08:02:50.987Z,92.50
2022-10-28T08:05:18.384Z,92.40
2022-10-28T08:07:47.059Z,92.30
2022-10-28T08:10:14.456Z,92.30
2022-10-28T08:12:41.843Z,92.20
2022-10-28T08:15:10.551Z,92.00
2022-10-28T08:17:38.010Z,91.90
2022-10-28T08:20:06.033Z,91.90
2022-10-28T08:22:33.365Z,91.80
2022-10-28T08:25:00.710Z,91.70
2022-10-28T08:27:28.066Z,91.60
2022-10-28T08:29:57.224Z,91.50
2022-10-28T08:32:24.623Z,91.40
2022-10-28T08:34:51.965Z,91.40
2022-10-28T08:37:19.447Z,91.40
2022-10-28T08:39:46.965Z,91.30
2022-10-28T08:42:33.308Z,91.20
2022-10-28T08:45:19.836Z,91.20
2022-10-28T08:47:50.590Z,91.10
2022-10-28T08:50:19.820Z,90.50
2022-10-28T08:52:53.997Z,89.20
2022-10-28T08:55:28.499Z,88.70
2022-10-28T08:57:57.891Z,87.80
2022-10-28T09:00:30.540Z,87.60
2022-10-28T09:03:03.882Z,87.60
2022-10-28T09:05:31.360Z,87.70
2022-10-28T09:07:58.869Z,87.70
2022-10-28T09:10:46.484Z,87.80
2022-10-28T09:13:34.252Z,87.90
2022-10-28T09:16:16.140Z,87.80
2022-10-28T09:19:03.984Z,87.90
2022-10-28T09:21:33.336Z,87.60
2022-10-28T09:24:21.007Z,87.50
2022-10-28T09:26:59.710Z,87.10
2022-10-28T09:29:38.264Z,86.70
2022-10-28T09:32:07.961Z,86.20
2022-10-28T09:34:42.875Z,86.30
2022-10-28T09:37:19.435Z,86.40
2022-10-28T09:39:51.801Z,86.50
2022-10-28T09:42:30.524Z,86.30
2022-10-28T09:45:27.418Z,85.90
2022-10-28T09:48:00.523Z,85.40
2022-10-28T09:50:29.763Z,85.00
2022-10-28T09:53:14.243Z,84.70
2022-10-28T09:55:41.720Z,84.50
2022-10-28T09:58:10.451Z,83.80
2022-10-28T10:00:37.822Z,83.80
2022-10-28T10:03:07.655Z,83.10
2022-10-28T10:05:38.943Z,83.20
2022-10-28T10:08:06.830Z,82.60
2022-10-28T10:10:52.214Z,82.50
2022-10-28T10:13:25.354Z,82.20
2022-10-28T10:15:55.541Z,82.40
2022-10-28T10:18:24.548Z,82.20
2022-10-28T10:21:03.606Z,81.40
2022-10-28T10:23:35.537Z,81.70
2022-10-28T10:26:06.673Z,82.00
2022-10-28T10:28:38.752Z,82.30
2022-10-28T10:31:07.611Z,81.80
2022-10-28T10:33:36.771Z,81.20
2022-10-28T10:36:11.504Z,81.40
2022-10-28T10:38:49.217Z,81.70
2022-10-28T10:41:33.235Z,81.50
2022-10-28T10:44:00.822Z,81.70
2022-10-28T10:46:28.178Z,81.80
2022-10-28T10:49:06.730Z,81.30
2022-10-28T10:51:36.248Z,81.20
2022-10-28T10:54:06.740Z,81.00
2022-10-28T10:56:34.174Z,80.50
2022-10-28T10:59:03.874Z,80.30
2022-10-28T11:01:35.887Z,80.30
2022-10-28T11:04:04.919Z,80.00
2022-10-28T11:06:43.219Z,80.20
2022-10-28T11:09:43.250Z,79.80
2022-10-28T11:12:32.058Z,79.90
2022-10-28T11:15:00.544Z,79.20
2022-10-28T11:17:29.630Z,79.50
2022-10-28T11:19:58.668Z,79.90
2022-10-28T11:22:41.349Z,79.80
2022-10-28T11:25:18.219Z,79.40
2022-10-28T11:28:07.639Z,77.70
2022-10-28T11:30:41.250Z,77.30
2022-10-28T11:33:28.675Z,77.00
2022-10-28T11:36:06.947Z,76.90
2022-10-28T11:38:34.273Z,77.00
2022-10-28T11:41:12.102Z,77.60
2022-10-28T11:43:58.588Z,78.10
2022-10-28T11:46:34.609Z,78.50
2022-10-28T11:49:08.082Z,78.80
2022-10-28T11:51:35.484Z,79.10
2022-10-28T11:54:29.220Z,79.00
2022-10-28T11:57:05.771Z,79.00
2022-10-28T11:59:45.402Z,78.90
2022-10-28T12:02:26.933Z,78.50
2022-10-28T12:05:00.562Z,78.50
2022-10-28T12:07:46.231Z,77.70
2022-10-28T12:10:14.109Z,77.10
2022-10-28T12:12:57.970Z,77.00
2022-10-28T12:15:37.150Z,76.10
2022-10-28T12:18:14.388Z,75.20
2022-10-28T12:20:44.850Z,74.60
2022-10-28T12:23:13.969Z,74.40
2022-10-28T12:25:43.979Z,74.60
2022-10-28T12:28:18.513Z,74.20
2022-10-28T12:30:47.213Z,73.50
2022-10-28T12:33:19.554Z,73.40
2022-10-28T12:36:13.381Z,73.20
2022-10-28T12:38:44.658Z,72.50
2022-10-28T12:41:20.793Z,71.10
2022-10-28T12:43:52.086Z,70.50
2022-10-28T12:46:28.134Z,71.10
2022-10-28T12:48:57.415Z,70.90
2022-10-28T12:51:33.621Z,71.30
2022-10-28T12:54:06.028Z,70.90
2022-10-28T12:56:36.226Z,70.70
2022-10-28T12:59:06.891Z,71.10
2022-10-28T13:01:34.798Z,71.30
2022-10-28T13:04:02.571Z,71.50
2022-10-28T13:06:41.884Z,71.30
2022-10-28T13:09:27.728Z,71.50
2022-10-28T13:11:55.100Z,71.30
2022-10-28T13:14:49.743Z,71.80
2022-10-28T13:17:35.938Z,71.80
2022-10-28T13:20:19.380Z,72.20
2022-10-28T13:23:05.660Z,72.60
2022-10-28T13:25:51.930Z,73.00
2022-10-28T13:28:21.596Z,73.20
2022-10-28T13:31:08.096Z,73.40
2022-10-28T13:33:36.495Z,73.20
2022-10-28T13:36:15.431Z,73.20
2022-10-28T13:38:42.994Z,73.40
2022-10-28T13:41:12.072Z,73.40
2022-10-28T13:43:48.795Z,73.30
2022-10-28T13:46:55.173Z,73.10
2022-10-28T13:49:26.792Z,72.20
2022-10-28T13:52:03.040Z,71.50
2022-10-28T13:54:31.781Z,70.70
2022-10-28T13:57:08.844Z,70.00
2022-10-28T13:59:46.644Z,69.70
2022-10-28T14:05:15.434Z,70.80
2022-10-28T14:07:56.668Z,71.40
2022-10-28T14:10:24.418Z,71.60
2022-10-28T14:12:54.905Z,71.90
2022-10-28T14:15:41.081Z,72.10
2022-10-28T14:18:42.867Z,72.20
2022-10-28T14:21:02.389Z,72.00
2022-10-28T14:23:29.937Z,72.00
2022-10-28T14:25:59.949Z,72.20
2022-10-28T14:28:27.340Z,72.20
2022-10-28T14:31:14.530Z,72.40
2022-10-28T14:33:41.918Z,72.50
2022-10-28T14:36:12.312Z,72.40
2022-10-28T14:38:55.045Z,72.40
2022-10-28T14:41:30.486Z,72.60
2022-10-28T14:44:05.927Z,72.80
2022-10-28T14:46:36.582Z,73.00
2022-10-28T14:49:14.039Z,73.30
2022-10-28T14:51:42.513Z,73.20
2022-10-28T14:54:15.435Z,73.30
2022-10-28T14:56:43.319Z,73.30
2022-10-28T14:59:27.790Z,73.20
2022-10-28T15:02:15.566Z,73.20
2022-10-28T15:04:44.082Z,73.30
2022-10-28T15:07:16.196Z,73.60
2022-10-28T15:09:44.928Z,73.90
2022-10-28T15:12:14.031Z,74.20
2022-10-28T15:14:44.662Z,74.40
2022-10-28T15:17:18.298Z,74.60
2022-10-28T15:19:46.977Z,74.70
2022-10-28T15:22:24.665Z,74.70
2022-10-28T15:24:52.755Z,74.70
2022-10-28T15:27:21.003Z,74.70
2022-10-28T15:29:48.901Z,74.70
2022-10-28T15:32:19.370Z,74.90
2022-10-28T15:34:47.213Z,75.10
2022-10-28T15:37:19.356Z,75.10
2022-10-28T15:39:47.002Z,75.10
2022-10-28T15:42:26.600Z,75.00
2022-10-28T15:44:57.576Z,75.10
2022-10-28T15:47:33.065Z,75.00
2022-10-28T15:50:02.319Z,75.20
2022-10-28T15:52:34.914Z,75.30
2022-10-28T15:55:15.694Z,75.30
2022-10-28T15:57:47.219Z,75.40
2022-10-28T16:00:20.095Z,75.50
2022-10-28T16:02:56.187Z,75.60
2022-10-28T16:05:33.267Z,75.70
2022-10-28T16:08:05.549Z,75.80
2022-10-28T16:10:44.555Z,75.90
2022-10-28T16:13:24.580Z,76.10
2022-10-28T16:16:00.751Z,76.40
2022-10-28T16:18:29.553Z,76.60
2022-10-28T16:20:58.277Z,76.70
2022-10-28T16:23:28.946Z,76.90
2022-10-28T16:25:56.323Z,77.10
2022-10-28T16:28:24.804Z,77.20
2022-10-28T16:30:53.524Z,77.30
2022-10-28T16:33:25.022Z,77.50
2022-10-28T16:35:52.472Z,77.70
2022-10-28T16:38:19.930Z,77.80
2022-10-28T16:40:51.965Z,77.90
2022-10-28T16:43:24.585Z,78.00
2022-10-28T16:45:52.863Z,78.20
2022-10-28T16:48:21.527Z,78.40
2022-10-28T16:50:50.185Z,78.70
2022-10-28T16:53:18.111Z,78.90
2022-10-28T16:55:45.967Z,79.20
2022-10-28T16:58:13.506Z,79.30
2022-10-28T17:00:41.681Z,79.60
2022-10-28T17:03:12.225Z,79.80
2022-10-28T17:05:39.953Z,80.00
2022-10-28T17:08:09.925Z,80.20
2022-10-28T17:10:40.615Z,80.50
